createdAt,value
2023-04-25T00:01:23.249Z,2.45
2023-04-25T00:03:26.320Z,2.47
2023-04-25T00:05:30.567Z,3.65
2023-04-25T00:07:33.300Z,2.60
2023-04-25T00:11:38.028Z,2.60
2023-04-25T00:13:42.635Z,3.13
2023-04-25T00:15:45.450Z,4.35
2023-04-25T00:19:50.856Z,2.92
2023-04-25T00:21:53.046Z,2.50
2023-04-25T00:23:55.672Z,2.25
2023-04-25T00:25:57.849Z,2.35
2023-04-25T00:28:00.180Z,3.38
2023-04-25T00:30:02.487Z,2.28
2023-04-25T00:32:04.825Z,2.28
2023-04-25T00:34:08.149Z,2.65
2023-04-25T00:36:10.699Z,2.65
2023-04-25T00:38:12.865Z,2.80
2023-04-25T00:40:15.179Z,2.03
2023-04-25T00:42:17.732Z,2.58
2023-04-25T00:44:19.850Z,2.95
2023-04-25T00:46:22.038Z,2.42
2023-04-25T00:48:24.384Z,3.50
2023-04-25T00:50:26.532Z,3.10
2023-04-25T00:52:28.813Z,4.75
2023-04-25T00:54:31.784Z,2.67
2023-04-25T00:56:33.938Z,2.83
2023-04-25T00:58:36.393Z,4.85
2023-04-25T01:00:38.597Z,3.22
2023-04-25T01:02:41.844Z,2.78
2023-04-25T01:04:44.174Z,2.95
2023-04-25T01:06:46.830Z,3.30
2023-04-25T01:10:51.024Z,2.72
2023-04-25T01:12:53.476Z,2.70
2023-04-25T01:14:55.805Z,2.60
2023-04-25T01:16:58.344Z,6.10
2023-04-25T01:21:07.397Z,3.75
2023-04-25T01:23:09.641Z,3.08
2023-04-25T01:25:11.812Z,4.35
2023-04-25T01:27:14.195Z,2.65
2023-04-25T01:29:16.441Z,4.13
2023-04-25T01:31:18.691Z,3.50
2023-04-25T01:33:22.705Z,2.58
2023-04-25T01:35:25.086Z,2.90
2023-04-25T01:37:27.251Z,2.80
2023-04-25T01:39:29.602Z,3.10
2023-04-25T01:41:31.957Z,2.95
2023-04-25T01:43:34.177Z,4.45
2023-04-25T01:45:37.464Z,2.92
2023-04-25T01:47:41.220Z,4.13
2023-04-25T01:49:43.446Z,3.45
2023-04-25T01:51:45.909Z,5.15
2023-04-25T01:53:48.167Z,3.17
2023-04-25T01:55:50.442Z,2.80
2023-04-25T01:57:52.558Z,4.15
2023-04-25T01:59:59.452Z,2.97
2023-04-25T02:02:04.651Z,2.47
2023-04-25T02:04:06.905Z,2.65
2023-04-25T02:06:09.274Z,2.88
2023-04-25T02:08:11.468Z,3.95
2023-04-25T02:10:13.653Z,3.40
2023-04-25T02:12:15.832Z,2.97
2023-04-25T02:14:18.036Z,3.10
2023-04-25T02:16:20.450Z,2.75
2023-04-25T02:18:22.752Z,2.53
2023-04-25T02:20:25.816Z,2.47
2023-04-25T02:22:28.335Z,2.88
2023-04-25T02:24:30.934Z,2.75
2023-04-25T02:26:33.107Z,2.55
2023-04-25T02:28:35.457Z,2.88
2023-04-25T02:30:37.789Z,2.75
2023-04-25T02:32:40.492Z,3.80
2023-04-25T02:34:42.783Z,2.88
2023-04-25T02:36:44.935Z,3.45
2023-04-25T02:38:47.085Z,3.75
2023-04-25T02:40:49.210Z,2.85
2023-04-25T02:42:51.381Z,3.53
2023-04-25T02:44:53.505Z,2.72
2023-04-25T02:46:55.707Z,2.58
2023-04-25T02:48:57.843Z,4.15
2023-04-25T02:51:00.006Z,2.28
2023-04-25T02:53:02.136Z,3.67
2023-04-25T02:55:04.399Z,2.95
2023-04-25T02:57:06.571Z,3.30
2023-04-25T02:59:08.737Z,3.67
2023-04-25T03:01:10.981Z,2.90
2023-04-25T03:03:13.326Z,3.90
2023-04-25T03:05:15.725Z,2.47
2023-04-25T03:07:17.909Z,2.78
2023-04-25T03:09:20.336Z,6.15
2023-04-25T03:11:22.554Z,3.08
2023-04-25T03:13:24.744Z,2.63
2023-04-25T03:15:26.865Z,4.32
2023-04-25T03:17:29.092Z,4.05
2023-04-25T03:19:31.504Z,3.08
2023-04-25T03:21:34.678Z,4.07
2023-04-25T03:23:36.822Z,3.15
2023-04-25T03:25:39.024Z,2.67
2023-04-25T03:27:41.138Z,2.70
2023-04-25T03:29:43.337Z,5.03
2023-04-25T03:31:45.582Z,5.05
2023-04-25T03:33:47.950Z,2.85
2023-04-25T03:35:51.047Z,3.13
2023-04-25T03:37:53.242Z,2.65
2023-04-25T03:39:55.484Z,4.97
2023-04-25T03:41:57.682Z,2.17
2023-04-25T03:43:59.916Z,3.13
2023-04-25T03:46:02.263Z,3.13
2023-04-25T03:48:04.889Z,2.92
2023-04-25T03:50:07.469Z,2.35
2023-04-25T03:52:09.657Z,2.50
2023-04-25T03:54:11.838Z,2.65
2023-04-25T03:56:14.055Z,2.92
2023-04-25T03:58:16.172Z,4.28
2023-04-25T04:00:18.355Z,3.35
2023-04-25T04:02:20.697Z,4.50
2023-04-25T04:04:23.319Z,2.63
2023-04-25T04:06:26.550Z,3.78
2023-04-25T04:08:28.779Z,2.40
2023-04-25T04:10:31.369Z,3.38
2023-04-25T04:12:33.545Z,3.20
2023-04-25T04:14:35.815Z,3.78
2023-04-25T04:16:38.157Z,3.28
2023-04-25T04:18:40.433Z,3.55
2023-04-25T04:20:42.596Z,6.57
2023-04-25T04:22:44.724Z,2.85
2023-04-25T04:24:47.298Z,3.15
2023-04-25T04:28:52.885Z,2.35
2023-04-25T04:30:55.160Z,2.20
2023-04-25T04:32:57.957Z,2.20
2023-04-25T04:35:00.656Z,3.35
2023-04-25T04:39:05.951Z,3.55
2023-04-25T04:41:08.341Z,2.10
2023-04-25T04:43:11.273Z,2.50
2023-04-25T04:45:13.988Z,3.78
2023-04-25T04:49:18.531Z,3.00
2023-04-25T04:51:21.904Z,4.05
2023-04-25T04:53:24.181Z,3.10
2023-04-25T04:55:26.403Z,3.85
2023-04-25T04:57:29.166Z,5.00
2023-04-25T04:59:31.427Z,2.97
2023-04-25T05:01:33.652Z,4.38
2023-04-25T05:03:36.010Z,5.57
2023-04-25T05:05:41.063Z,3.72
2023-04-25T05:07:43.237Z,5.72
2023-04-25T05:09:45.597Z,4.70
2023-04-25T05:11:47.784Z,2.65
2023-04-25T05:13:50.087Z,2.85
2023-04-25T05:15:52.390Z,4.00
2023-04-25T05:17:54.630Z,6.47
2023-04-25T05:19:57.032Z,2.85
2023-04-25T05:21:59.177Z,3.70
2023-04-25T05:24:01.490Z,3.70
2023-04-25T05:26:03.659Z,3.25
2023-04-25T05:28:06.717Z,5.00
2023-04-25T05:30:09.886Z,9.73
2023-04-25T05:32:12.329Z,5.18
2023-04-25T05:34:14.534Z,5.47
2023-04-25T05:36:16.648Z,5.05
2023-04-25T05:38:18.764Z,4.20
2023-04-25T05:40:20.968Z,5.57
2023-04-25T05:42:23.164Z,2.97
2023-04-25T05:44:25.377Z,5.13
2023-04-25T05:46:27.628Z,2.78
2023-04-25T05:48:30.059Z,4.30
2023-04-25T05:50:32.188Z,5.00
2023-04-25T05:52:34.531Z,3.40
2023-04-25T05:54:36.642Z,5.45
2023-04-25T05:56:38.822Z,4.95
2023-04-25T05:58:41.329Z,3.03
2023-04-25T06:00:43.527Z,4.45
2023-04-25T06:02:45.825Z,6.53
2023-04-25T06:04:48.577Z,3.42
2023-04-25T06:08:53.409Z,3.30
2023-04-25T06:10:55.631Z,3.17
2023-04-25T06:12:57.802Z,3.80
2023-04-25T06:14:59.947Z,4.47
2023-04-25T06:17:07.302Z,4.72
2023-04-25T06:19:09.496Z,4.50
2023-04-25T06:21:11.795Z,4.22
2023-04-25T06:23:13.950Z,4.82
2023-04-25T06:25:16.171Z,4.30
2023-04-25T06:27:18.337Z,3.33
2023-04-25T06:29:20.465Z,6.10
2023-04-25T06:31:22.700Z,3.17
2023-04-25T06:33:25.419Z,3.40
2023-04-25T06:37:29.644Z,2.53
2023-04-25T06:39:31.788Z,2.40
2023-04-25T06:41:33.996Z,2.45
2023-04-25T06:43:36.193Z,3.08
2023-04-25T06:45:38.449Z,3.78
2023-04-25T06:47:40.635Z,3.90
2023-04-25T06:49:42.879Z,5.28
2023-04-25T06:51:45.045Z,3.55
2023-04-25T06:53:47.204Z,3.30
2023-04-25T06:55:49.347Z,4.88
2023-04-25T06:57:51.532Z,6.78
2023-04-25T06:59:53.651Z,4.35
2023-04-25T07:01:55.800Z,3.55
2023-04-25T07:03:58.070Z,3.75
2023-04-25T07:06:00.944Z,4.80
2023-04-25T07:10:06.611Z,4.32
2023-04-25T07:14:10.891Z,2.55
2023-04-25T07:16:13.072Z,2.83
2023-04-25T07:18:15.446Z,5.90
2023-04-25T07:20:17.622Z,5.10
2023-04-25T07:22:19.826Z,4.22
2023-04-25T07:24:22.019Z,3.42
2023-04-25T07:26:24.307Z,4.60
2023-04-25T07:28:26.474Z,4.43
2023-04-25T07:30:28.773Z,4.22
2023-04-25T07:32:31.464Z,3.80
2023-04-25T07:36:35.849Z,2.88
2023-04-25T07:38:38.047Z,5.43
2023-04-25T07:40:40.166Z,2.70
2023-04-25T07:42:42.379Z,3.42
2023-04-25T07:44:44.612Z,4.82
2023-04-25T07:46:46.844Z,4.80
2023-04-25T07:48:49.334Z,5.53
2023-04-25T07:52:53.758Z,3.72
2023-04-25T07:54:55.949Z,3.88
2023-04-25T07:56:58.448Z,5.30
2023-04-25T07:59:01.653Z,3.58
2023-04-25T08:01:03.876Z,4.18
2023-04-25T08:03:06.313Z,5.72
2023-04-25T08:05:12.822Z,3.83
2023-04-25T08:07:15.384Z,3.45
2023-04-25T08:09:17.707Z,3.90
2023-04-25T08:11:20.040Z,4.00
2023-04-25T08:13:22.174Z,2.95
2023-04-25T08:15:24.322Z,4.13
2023-04-25T08:17:26.550Z,3.45
2023-04-25T08:19:28.724Z,5.10
2023-04-25T08:21:31.415Z,3.80
2023-04-25T08:25:35.653Z,2.33
2023-04-25T08:27:37.817Z,2.88
2023-04-25T08:29:40.044Z,3.08
2023-04-25T08:31:42.264Z,3.17
2023-04-25T08:33:45.670Z,3.10
2023-04-25T08:35:48.055Z,3.25
2023-04-25T08:37:50.524Z,4.05
2023-04-25T08:39:57.172Z,3.42
2023-04-25T08:41:59.381Z,6.05
2023-04-25T08:44:02.697Z,3.25
2023-04-25T08:46:04.948Z,5.78
2023-04-25T08:48:08.024Z,2.28
2023-04-25T08:50:10.410Z,2.53
2023-04-25T08:52:14.523Z,2.90
2023-04-25T08:54:33.557Z,2.55
2023-04-25T08:56:37.301Z,2.30
2023-04-25T08:58:39.496Z,4.60
2023-04-25T09:00:41.960Z,4.72
2023-04-25T09:02:45.119Z,5.65
2023-04-25T09:04:47.683Z,3.40
2023-04-25T09:06:49.918Z,4.55
2023-04-25T09:08:52.152Z,3.08
2023-04-25T09:10:54.288Z,4.05
2023-04-25T09:13:09.688Z,3.50
2023-04-25T09:15:12.995Z,4.13
2023-04-25T09:17:15.210Z,2.97
2023-04-25T09:19:38.087Z,2.83
2023-04-25T09:21:41.564Z,4.43
2023-04-25T09:23:48.249Z,5.53
2023-04-25T09:25:51.422Z,1.90
2023-04-25T09:27:57.068Z,4.35
2023-04-25T09:30:01.515Z,1.88
2023-04-25T09:32:23.506Z,4.82
2023-04-25T09:34:27.556Z,3.75
2023-04-25T09:36:29.861Z,3.13
2023-04-25T09:38:33.047Z,2.45
2023-04-25T09:40:35.390Z,1.83
2023-04-25T09:42:37.908Z,2.33
2023-04-25T09:44:43.811Z,1.88
2023-04-25T09:46:46.122Z,3.35
2023-04-25T09:48:52.179Z,1.42
2023-04-25T09:51:07.457Z,2.05
2023-04-25T09:53:09.794Z,3.75
2023-04-25T09:55:12.011Z,1.63
2023-04-25T09:57:16.391Z,2.78
2023-04-25T09:59:19.843Z,2.47
2023-04-25T10:01:22.947Z,2.47
2023-04-25T10:03:26.726Z,2.83
2023-04-25T10:05:30.360Z,5.38
2023-04-25T10:07:34.074Z,1.83
2023-04-25T10:09:38.697Z,3.42
2023-04-25T10:11:41.201Z,3.05
2023-04-25T10:13:43.781Z,2.65
2023-04-25T10:15:46.653Z,2.95
2023-04-25T10:17:49.350Z,4.57
2023-04-25T10:21:56.001Z,3.30
2023-04-25T10:23:58.534Z,1.75
2023-04-25T10:26:01.137Z,2.10
2023-04-25T10:28:04.992Z,2.25
2023-04-25T10:30:17.399Z,1.60
2023-04-25T10:32:19.965Z,3.28
2023-04-25T10:34:27.061Z,3.40
2023-04-25T10:36:32.599Z,2.85
2023-04-25T10:38:34.777Z,3.10
2023-04-25T10:40:37.171Z,2.60
2023-04-25T10:42:39.318Z,3.75
2023-04-25T10:44:41.531Z,2.28
2023-04-25T10:46:46.035Z,2.78
2023-04-25T10:48:50.026Z,2.15
2023-04-25T10:51:08.231Z,3.10
2023-04-25T10:53:17.033Z,5.18
2023-04-25T10:55:19.221Z,7.18
2023-04-25T10:57:39.492Z,2.20
2023-04-25T10:59:41.737Z,2.35
2023-04-25T11:01:53.512Z,3.88
2023-04-25T11:03:59.796Z,3.72
2023-04-25T11:06:03.064Z,1.50
2023-04-25T11:08:08.693Z,2.72
2023-04-25T11:10:10.898Z,1.23
2023-04-25T11:12:14.106Z,2.35
2023-04-25T11:14:16.314Z,2.92
2023-04-25T11:16:27.460Z,2.75
2023-04-25T11:18:30.606Z,1.88
2023-04-25T11:20:33.074Z,2.20
2023-04-25T11:22:35.777Z,3.22
2023-04-25T11:24:38.063Z,3.70
2023-04-25T11:26:44.677Z,4.82
2023-04-25T11:28:47.942Z,2.22
2023-04-25T11:30:53.270Z,3.45
2023-04-25T11:32:55.908Z,3.13
2023-04-25T11:37:01.089Z,3.25
2023-04-25T11:39:03.616Z,1.52
2023-04-25T11:41:05.850Z,3.58
2023-04-25T11:43:08.336Z,2.10
2023-04-25T11:45:11.613Z,2.22
2023-04-25T11:47:13.816Z,2.25
2023-04-25T11:49:16.697Z,1.90
2023-04-25T11:51:18.911Z,3.03
2023-04-25T11:53:21.462Z,1.73
2023-04-25T11:55:23.648Z,2.63
2023-04-25T11:57:25.928Z,1.85
2023-04-25T11:59:28.177Z,4.30
2023-04-25T12:01:35.156Z,3.10
2023-04-25T12:03:47.646Z,2.10
2023-04-25T12:05:50.333Z,1.73
2023-04-25T12:07:52.619Z,1.60
2023-04-25T12:09:54.877Z,1.70
2023-04-25T12:11:57.778Z,1.90
2023-04-25T12:14:06.101Z,2.78
2023-04-25T12:16:08.349Z,2.40
2023-04-25T12:18:10.629Z,3.22
2023-04-25T12:20:14.881Z,2.22
2023-04-25T12:22:23.944Z,3.78
2023-04-25T12:24:27.016Z,3.80
2023-04-25T12:26:47.139Z,3.20
2023-04-25T12:28:49.630Z,2.70
2023-04-25T12:32:54.296Z,2.03
2023-04-25T12:34:56.839Z,3.63
2023-04-25T12:36:59.108Z,3.70
2023-04-25T12:39:05.150Z,3.72
2023-04-25T12:41:07.333Z,2.55
2023-04-25T12:43:09.467Z,1.88
2023-04-25T12:45:11.640Z,1.95
2023-04-25T12:47:13.755Z,2.00
2023-04-25T12:49:19.297Z,2.35
2023-04-25T12:51:21.976Z,2.67
2023-04-25T12:53:25.393Z,1.63
2023-04-25T12:55:27.604Z,1.90
2023-04-25T12:57:29.787Z,1.50
2023-04-25T12:59:32.189Z,1.83
2023-04-25T13:01:35.764Z,1.52
2023-04-25T13:03:38.947Z,2.63
2023-04-25T13:05:41.340Z,1.40
2023-04-25T13:07:43.531Z,2.15
2023-04-25T13:09:45.840Z,1.40
2023-04-25T13:11:47.987Z,1.70
2023-04-25T13:13:50.574Z,2.80
2023-04-25T13:17:55.053Z,2.78
2023-04-25T13:19:57.301Z,1.50
2023-04-25T13:21:59.877Z,7.25
2023-04-25T13:24:02.128Z,1.48
2023-04-25T13:26:04.393Z,1.35
2023-04-25T13:28:07.133Z,1.50
2023-04-25T13:32:12.227Z,1.15
2023-04-25T13:34:14.569Z,1.02
2023-04-25T13:36:16.787Z,1.42
2023-04-25T13:38:18.968Z,3.85
2023-04-25T13:40:22.813Z,1.40
2023-04-25T13:42:26.243Z,1.83
2023-04-25T13:44:28.872Z,2.25
2023-04-25T13:46:45.673Z,1.75
2023-04-25T13:48:49.718Z,2.35
2023-04-25T13:50:51.911Z,1.27
2023-04-25T13:52:54.050Z,2.17
2023-04-25T13:54:56.696Z,1.98
2023-04-25T13:57:00.223Z,1.88
2023-04-25T13:59:02.437Z,1.83
2023-04-25T14:01:04.779Z,1.50
2023-04-25T14:03:08.819Z,1.55
2023-04-25T14:05:11.557Z,1.60
2023-04-25T14:07:13.940Z,1.90
2023-04-25T14:09:16.475Z,1.77
2023-04-25T14:11:19.385Z,2.03
2023-04-25T14:13:21.640Z,1.50
2023-04-25T14:15:23.993Z,1.45
2023-04-25T14:17:26.369Z,1.95
2023-04-25T14:19:29.768Z,2.17
2023-04-25T14:21:34.892Z,1.00
2023-04-25T14:23:37.081Z,1.33
2023-04-25T14:25:39.274Z,1.65
2023-04-25T14:27:41.490Z,1.40
2023-04-25T14:29:43.891Z,1.75
2023-04-25T14:31:46.364Z,1.42
2023-04-25T14:33:48.745Z,1.48
2023-04-25T14:35:51.095Z,1.20
2023-04-25T14:37:54.552Z,2.40
2023-04-25T14:39:56.694Z,1.40
2023-04-25T14:41:58.866Z,2.05
2023-04-25T14:44:01.041Z,1.10
2023-04-25T14:46:03.540Z,0.93
2023-04-25T14:48:05.844Z,1.08
2023-04-25T14:50:09.545Z,1.38
2023-04-25T14:52:11.692Z,1.20
2023-04-25T14:54:14.701Z,1.00
2023-04-25T14:56:16.838Z,1.25
2023-04-25T14:58:18.990Z,1.17
2023-04-25T15:00:21.772Z,2.25
2023-04-25T15:04:26.342Z,2.85
2023-04-25T15:06:29.859Z,1.75
2023-04-25T15:08:32.229Z,1.90
2023-04-25T15:10:34.429Z,1.75
2023-04-25T15:12:36.693Z,1.52
2023-04-25T15:14:38.874Z,1.42
2023-04-25T15:16:41.363Z,1.90
2023-04-25T15:18:43.636Z,2.30
2023-04-25T15:20:46.084Z,1.95
2023-04-25T15:22:49.698Z,1.92
2023-04-25T15:24:52.332Z,1.80
2023-04-25T15:26:54.505Z,1.55
2023-04-25T15:28:56.901Z,1.15
2023-04-25T15:30:59.046Z,1.33
2023-04-25T15:33:01.460Z,1.60
2023-04-25T15:35:04.811Z,1.38
2023-04-25T15:37:06.952Z,2.95
2023-04-25T15:39:09.508Z,3.47
2023-04-25T15:41:11.627Z,1.92
2023-04-25T15:43:16.164Z,2.03
2023-04-25T15:45:18.798Z,2.80
2023-04-25T15:47:20.955Z,1.77
2023-04-25T15:49:23.185Z,1.10
2023-04-25T15:51:25.579Z,2.30
2023-04-25T15:53:27.754Z,1.65
2023-04-25T15:55:29.901Z,1.40
2023-04-25T15:57:33.735Z,2.25
2023-04-25T15:59:36.329Z,2.70
2023-04-25T16:01:39.769Z,1.50
2023-04-25T16:03:42.135Z,1.30
2023-04-25T16:05:44.494Z,1.30
2023-04-25T16:07:47.763Z,1.45
2023-04-25T16:09:50.014Z,1.42
2023-04-25T16:11:52.169Z,1.40
2023-04-25T16:13:54.338Z,2.38
2023-04-25T16:15:56.677Z,2.45
2023-04-25T16:17:58.956Z,1.50
2023-04-25T16:20:10.386Z,6.45
2023-04-25T16:22:16.299Z,12.40
2023-04-25T16:24:18.721Z,86.03
2023-04-25T16:26:22.297Z,76.78
2023-04-25T16:28:24.828Z,8.90
2023-04-25T16:30:27.133Z,18.58
2023-04-25T16:32:29.440Z,57.08
2023-04-25T16:34:31.969Z,59.78
2023-04-25T16:36:34.123Z,10.45
2023-04-25T16:38:38.824Z,38.63
2023-04-25T16:40:41.017Z,25.70
2023-04-25T16:42:43.182Z,8.65
2023-04-25T16:44:45.391Z,7.20
2023-04-25T16:46:47.688Z,3.65
2023-04-25T16:48:50.269Z,3.95
2023-04-25T16:52:55.294Z,2.30
2023-04-25T16:54:57.448Z,2.83
2023-04-25T16:56:59.980Z,2.28
2023-04-25T16:59:02.304Z,2.95
2023-04-25T17:01:04.638Z,2.47
2023-04-25T17:03:07.368Z,2.83
2023-04-25T17:07:11.739Z,3.03
2023-04-25T17:09:13.876Z,4.05
2023-04-25T17:11:16.066Z,2.70
2023-04-25T17:13:18.355Z,4.45
2023-04-25T17:15:20.823Z,3.40
2023-04-25T17:17:23.028Z,4.90
2023-04-25T17:19:26.116Z,4.43
2023-04-25T17:21:28.755Z,4.30
2023-04-25T17:23:33.793Z,3.67
2023-04-25T17:25:36.067Z,3.20
2023-04-25T17:27:38.585Z,3.03
2023-04-25T17:29:41.387Z,5.30
2023-04-25T17:31:43.599Z,5.60
2023-04-25T17:33:45.724Z,10.63
2023-04-25T17:35:47.941Z,6.25
2023-04-25T17:37:51.459Z,12.82
2023-04-25T17:39:53.624Z,24.02
2023-04-25T17:41:55.816Z,21.15
2023-04-25T17:43:57.985Z,9.95
2023-04-25T17:46:00.291Z,5.07
2023-04-25T17:48:03.868Z,3.40
2023-04-25T17:50:07.301Z,6.28
2023-04-25T17:52:09.610Z,4.13
2023-04-25T17:54:11.786Z,3.47
2023-04-25T17:56:25.880Z,2.92
2023-04-25T17:58:29.020Z,2.92
2023-04-25T18:00:31.839Z,3.08
2023-04-25T18:02:36.403Z,3.90
2023-04-25T18:04:39.202Z,3.92
2023-04-25T18:06:41.760Z,2.85
2023-04-25T18:08:44.763Z,3.33
2023-04-25T18:10:46.997Z,4.15
2023-04-25T18:12:50.637Z,3.63
2023-04-25T18:14:53.052Z,4.38
2023-04-25T18:16:55.555Z,4.03
2023-04-25T18:19:05.193Z,4.07
2023-04-25T18:21:08.571Z,2.92
2023-04-25T18:23:12.011Z,3.20
2023-04-25T18:25:14.190Z,4.57
2023-04-25T18:27:16.406Z,4.35
2023-04-25T18:29:32.075Z,4.00
2023-04-25T18:31:35.797Z,3.13
2023-04-25T18:33:37.976Z,4.18
2023-04-25T18:35:45.147Z,3.25
2023-04-25T18:37:54.490Z,3.45
2023-04-25T18:39:56.671Z,4.55
2023-04-25T18:42:02.549Z,4.75
2023-04-25T18:44:07.908Z,5.55
2023-04-25T18:46:10.186Z,3.85
2023-04-25T18:48:12.481Z,4.90
2023-04-25T18:50:15.525Z,4.55
2023-04-25T18:52:19.062Z,5.18
2023-04-25T18:54:21.204Z,2.35
2023-04-25T18:56:25.576Z,3.45
2023-04-25T18:58:28.272Z,1.95
2023-04-25T19:02:32.856Z,2.10
2023-04-25T19:04:35.499Z,2.00
2023-04-25T19:06:37.807Z,2.70
2023-04-25T19:08:40.041Z,2.55
2023-04-25T19:10:42.213Z,2.42
2023-04-25T19:12:44.469Z,3.03
2023-04-25T19:14:46.702Z,2.47
2023-04-25T19:16:48.955Z,2.92
2023-04-25T19:18:52.576Z,3.53
2023-04-25T19:20:55.012Z,4.47
2023-04-25T19:22:57.470Z,3.60
2023-04-25T19:25:09.729Z,4.65
2023-04-25T19:27:14.041Z,4.00
2023-04-25T19:29:16.642Z,5.35
2023-04-25T19:33:22.221Z,3.92
2023-04-25T19:35:24.617Z,5.70
2023-04-25T19:37:26.957Z,5.22
2023-04-25T19:39:29.266Z,3.80
2023-04-25T19:41:32.099Z,5.82
2023-04-25T19:43:34.364Z,4.93
2023-04-25T19:45:36.801Z,4.70
2023-04-25T19:47:39.312Z,5.18
2023-04-25T19:49:41.511Z,5.00
2023-04-25T19:51:43.899Z,7.75
2023-04-25T19:53:46.028Z,5.18
2023-04-25T19:55:48.472Z,4.95
2023-04-25T19:57:51.408Z,6.25
2023-04-25T19:59:53.547Z,5.38
2023-04-25T20:01:56.347Z,5.93
2023-04-25T20:03:58.642Z,5.30
2023-04-25T20:06:00.828Z,6.50
2023-04-25T20:08:03.622Z,6.60
2023-04-25T20:10:06.944Z,4.75
2023-04-25T20:12:09.183Z,5.30
2023-04-25T20:14:11.797Z,5.13
2023-04-25T20:18:21.984Z,4.97
2023-04-25T20:20:24.134Z,6.40
2023-04-25T20:22:28.573Z,4.80
2023-04-25T20:24:31.300Z,5.72
2023-04-25T20:28:39.078Z,6.97
2023-04-25T20:30:41.807Z,9.90
2023-04-25T20:34:46.624Z,7.18
2023-04-25T20:38:51.199Z,8.32
2023-04-25T20:42:58.170Z,11.20
2023-04-25T20:45:00.841Z,11.52
2023-04-25T20:47:03.096Z,6.45
2023-04-25T20:49:05.239Z,5.72
2023-04-25T20:51:07.393Z,7.93
2023-04-25T20:53:09.548Z,6.60
2023-04-25T20:55:12.000Z,8.85
2023-04-25T20:57:14.121Z,5.15
2023-04-25T20:59:16.866Z,5.45
2023-04-25T21:01:19.278Z,4.85
2023-04-25T21:03:22.309Z,5.50
2023-04-25T21:05:24.948Z,4.82
2023-04-25T21:07:27.267Z,6.07
2023-04-25T21:09:29.486Z,5.10
2023-04-25T21:11:31.752Z,7.13
2023-04-25T21:13:33.971Z,5.90
2023-04-25T21:15:36.143Z,6.80
2023-04-25T21:17:38.363Z,5.32
2023-04-25T21:19:41.134Z,6.20
2023-04-25T21:23:45.426Z,4.75
2023-04-25T21:25:48.846Z,4.90
2023-04-25T21:27:51.724Z,7.35
2023-04-25T21:29:53.819Z,5.18
2023-04-25T21:31:56.840Z,6.80
2023-04-25T21:33:59.093Z,7.18
2023-04-25T21:36:01.229Z,4.97
2023-04-25T21:38:03.792Z,6.00
2023-04-25T21:40:06.417Z,5.30
2023-04-25T21:44:12.696Z,5.78
2023-04-25T21:46:23.424Z,7.63
2023-04-25T21:48:26.035Z,6.20
2023-04-25T21:50:28.523Z,7.15
2023-04-25T21:52:30.952Z,5.25
2023-04-25T21:54:34.142Z,5.82
2023-04-25T21:56:36.623Z,5.97
2023-04-25T21:58:38.888Z,5.90
2023-04-25T22:00:42.604Z,6.47
2023-04-25T22:02:44.835Z,5.13
2023-04-25T22:04:47.727Z,7.43
2023-04-25T22:06:49.966Z,6.20
2023-04-25T22:08:52.419Z,8.13
2023-04-25T22:12:59.892Z,5.82
2023-04-25T22:15:02.039Z,6.45
2023-04-25T22:17:04.894Z,6.32
2023-04-25T22:19:08.035Z,5.82
2023-04-25T22:21:10.399Z,7.38
2023-04-25T22:23:12.558Z,5.70
2023-04-25T22:25:14.751Z,6.35
2023-04-25T22:27:16.964Z,5.05
2023-04-25T22:29:19.102Z,5.05
2023-04-25T22:31:21.364Z,5.22
2023-04-25T22:33:23.548Z,6.47
2023-04-25T22:35:25.706Z,5.93
2023-04-25T22:37:28.880Z,5.70
2023-04-25T22:39:31.025Z,5.10
2023-04-25T22:41:33.310Z,6.35
2023-04-25T22:43:35.614Z,5.78
2023-04-25T22:45:37.834Z,5.80
2023-04-25T22:47:40.588Z,5.28
2023-04-25T22:49:42.850Z,5.82
2023-04-25T22:51:45.004Z,5.55
2023-04-25T22:53:47.153Z,6.18
2023-04-25T22:55:56.955Z,5.68
2023-04-25T22:57:59.149Z,6.18
2023-04-25T23:00:01.664Z,4.97
2023-04-25T23:02:03.878Z,6.50
2023-04-25T23:04:07.862Z,5.20
2023-04-25T23:06:11.772Z,4.90
2023-04-25T23:08:14.893Z,4.65
2023-04-25T23:10:17.468Z,5.53
2023-04-25T23:12:19.673Z,4.72
2023-04-25T23:14:21.828Z,4.68
2023-04-25T23:16:23.988Z,5.70
2023-04-25T23:18:26.113Z,6.95
2023-04-25T23:20:28.279Z,5.55
2023-04-25T23:22:30.436Z,5.20
2023-04-25T23:24:32.726Z,4.95
2023-04-25T23:26:34.871Z,7.53
2023-04-25T23:28:42.018Z,6.80
2023-04-25T23:30:44.314Z,5.95
2023-04-25T23:32:46.540Z,6.05
2023-04-25T23:34:48.790Z,5.25
2023-04-25T23:36:51.138Z,6.95
2023-04-25T23:38:55.764Z,5.43
2023-04-25T23:40:57.961Z,6.90
2023-04-25T23:43:01.508Z,5.65
2023-04-25T23:45:05.087Z,7.45
2023-04-25T23:47:07.219Z,6.68
2023-04-25T23:49:09.791Z,6.30
2023-04-25T23:51:11.960Z,6.60
2023-04-25T23:53:14.069Z,7.45
2023-04-25T23:55:16.262Z,7.10
2023-04-25T23:57:18.608Z,6.10
2023-04-25T23:59:21.025Z,7.65
